EPZG/IEG METAR and TAF weather

Enter ICAO airport designator
Station Type Date Time Source
EPZG METAR 2024/06/16 08:30 UTC NOAA

EPZG 160830Z 14005KT 080V190 9999 FEW033 20/12 Q1011


Station Type Date Time Source
EPZG Decoded METAR 2024/06/16 08:30 UTC NOAA

Zielona Gora, Poland (EPZG) 51-56N 015-32E 192M
Jun 16, 2024 - 04:30 AM EDT / 2024.06.16 0830 UTC
Wind: from the SE (140 degrees) at 6 MPH (5 KT) (direction variable):0
Visibility: greater than 7 mile(s):0
Sky conditions: mostly clear
Temperature: 68 F (20 C)
Dew Point: 53 F (12 C)
Relative Humidity: 59%
Pressure (altimeter): 29.85 in. Hg (1011 hPa)
ob: EPZG 160830Z 14005KT 080V190 9999 FEW033 20/12 Q1011
cycle: 8

Station Type Date Time Source
EPZG TAF 2012/06/28 21:49 UTC NOAA